Time;durP1;ratioP1;P1;durP2;ratioP2;P2;SDS_P1;SDS_P2;PMS_P1;PMS_P2;Temp;Humidity;BMP_temperature;BMP_pressure;BME280_temperature;BME280_humidity;BME280_pressure;Samples;Min_cycle;Max_cycle;Signal;HPM_P1;HPM_P2
2024/04/06 00:01:00;;;;;;;2.38;0.88;;;;;;;;;;5021929;28;20650;-73
2024/04/06 00:03:26;;;;;;;3.40;1.10;;;;;;;;;;5042116;28;20041;-73
2024/04/06 00:05:51;;;;;;;2.65;0.80;;;;;;;;;;5042744;28;20056;-73
2024/04/06 00:08:16;;;;;;;3.95;1.08;;;;;;;;;;5043752;28;20382;-74
2024/04/06 00:10:41;;;;;;;5.13;0.93;;;;;;;;;;5040961;28;20413;-74
2024/04/06 00:13:06;;;;;;;2.72;0.80;;;;;;;;;;5041352;28;20064;-74
2024/04/06 00:15:32;;;;;;;3.20;1.08;;;;;;;;;;5039283;28;20059;-73
2024/04/06 00:17:57;;;;;;;5.53;2.70;;;;;;;;;;5042248;28;20078;-73
2024/04/06 00:20:22;;;;;;;5.95;2.55;;;;;;;;;;5041145;28;20048;-73
2024/04/06 00:22:47;;;;;;;10.20;4.57;;;;;;;;;;5041094;28;20040;-73
2024/04/06 00:25:12;;;;;;;11.45;4.63;;;;;;;;;;5040652;28;20043;-74
2024/04/06 00:27:37;;;;;;;12.65;5.32;;;;;;;;;;5040067;28;20029;-74
2024/04/06 00:30:03;;;;;;;20.20;10.20;;;;;;;;;;5024343;28;20025;-73
2024/04/06 00:32:28;;;;;;;19.23;9.00;;;;;;;;;;5040594;28;20032;-73
2024/04/06 00:34:53;;;;;;;12.32;5.65;;;;;;;;;;5028745;28;20132;-73
2024/04/06 00:37:19;;;;;;;17.77;9.52;;;;;;;;;;5032991;28;20120;-73
2024/04/06 00:39:44;;;;;;;20.30;9.60;;;;;;;;;;5026221;28;20056;-73
2024/04/06 00:42:09;;;;;;;18.77;8.60;;;;;;;;;;5032217;28;20094;-74
2024/04/06 00:44:34;;;;;;;8.60;4.43;;;;;;;;;;5040152;28;20521;-74
2024/04/06 00:47:03;;;;;;;6.88;2.33;;;;;;;;;;5041446;28;20410;-73
2024/04/06 00:49:29;;;;;;;4.40;1.88;;;;;;;;;;5042788;28;20021;-73
2024/04/06 00:51:54;;;;;;;3.38;1.40;;;;;;;;;;5021539;28;20508;-73
2024/04/06 00:54:19;;;;;;;3.88;1.52;;;;;;;;;;5044060;28;20040;-73
2024/04/06 00:56:44;;;;;;;2.08;0.88;;;;;;;;;;5025415;28;20125;-73
2024/04/06 00:59:10;;;;;;;2.35;0.93;;;;;;;;;;5041704;28;20842;-73
2024/04/06 01:01:35;;;;;;;2.85;1.10;;;;;;;;;;5043072;28;20037;-73
2024/04/06 01:04:00;;;;;;;3.28;1.00;;;;;;;;;;5041938;28;20123;-73
2024/04/06 01:06:25;;;;;;;2.35;1.00;;;;;;;;;;5038794;28;20037;-73
2024/04/06 01:08:51;;;;;;;4.63;1.70;;;;;;;;;;5044612;28;20472;-73
2024/04/06 01:11:16;;;;;;;4.93;1.35;;;;;;;;;;5043082;28;20081;-73
2024/04/06 01:13:41;;;;;;;4.40;1.00;;;;;;;;;;5045277;28;20060;-73
2024/04/06 01:16:07;;;;;;;3.65;1.38;;;;;;;;;;5038604;28;20048;-73
2024/04/06 01:18:32;;;;;;;4.93;1.42;;;;;;;;;;5042435;28;20449;-74
2024/04/06 01:20:58;;;;;;;2.22;1.33;;;;;;;;;;5036298;28;20033;-74
2024/04/06 01:23:24;;;;;;;3.10;0.93;;;;;;;;;;5039436;28;20033;-73
2024/04/06 01:25:49;;;;;;;4.57;1.70;;;;;;;;;;5029295;28;20083;-74
2024/04/06 01:28:14;;;;;;;3.78;1.63;;;;;;;;;;5048049;28;20025;-73
2024/04/06 01:30:39;;;;;;;2.55;1.08;;;;;;;;;;5046390;28;20038;-73
2024/04/06 01:33:05;;;;;;;3.33;1.00;;;;;;;;;;5045830;28;20102;-73
2024/04/06 01:35:30;;;;;;;3.92;1.20;;;;;;;;;;5036262;28;20478;-73
2024/04/06 01:37:55;;;;;;;4.72;1.33;;;;;;;;;;5049898;28;20025;-72
2024/04/06 01:40:20;;;;;;;5.32;1.73;;;;;;;;;;5049134;28;20029;-73
2024/04/06 01:42:46;;;;;;;2.80;1.20;;;;;;;;;;5043136;28;20482;-73
2024/04/06 01:45:11;;;;;;;3.58;1.40;;;;;;;;;;5042740;28;20037;-73
2024/04/06 01:47:36;;;;;;;4.68;1.70;;;;;;;;;;5049297;28;20033;-73
2024/04/06 01:50:03;;;;;;;4.22;1.30;;;;;;;;;;5042856;28;20029;-73
2024/04/06 01:52:28;;;;;;;2.20;0.80;;;;;;;;;;5044961;28;20075;-73
2024/04/06 01:54:53;;;;;;;2.25;0.80;;;;;;;;;;5046049;28;20485;-73
2024/04/06 01:57:18;;;;;;;2.53;0.95;;;;;;;;;;5051372;28;20036;-73
2024/04/06 01:59:46;;;;;;;1.95;0.80;;;;;;;;;;5047588;28;20032;-74
2024/04/06 02:02:11;;;;;;;3.00;1.15;;;;;;;;;;5051663;28;20040;-74
2024/04/06 02:04:37;;;;;;;2.83;1.10;;;;;;;;;;5052772;28;20033;-73
2024/04/06 02:07:03;;;;;;;2.65;1.02;;;;;;;;;;5050933;28;20086;-72
2024/04/06 02:09:28;;;;;;;3.58;1.08;;;;;;;;;;5050165;28;20057;-73
2024/04/06 02:11:53;;;;;;;3.63;1.00;;;;;;;;;;5051855;28;20021;-73
2024/04/06 02:14:18;;;;;;;2.33;0.90;;;;;;;;;;5052872;28;20021;-73
2024/04/06 02:16:43;;;;;;;3.50;1.42;;;;;;;;;;5049644;28;20603;-73
2024/04/06 02:19:09;;;;;;;3.45;1.40;;;;;;;;;;5051864;28;20056;-72
2024/04/06 02:21:34;;;;;;;2.72;0.90;;;;;;;;;;5050097;28;20029;-72
2024/04/06 02:23:59;;;;;;;4.25;1.33;;;;;;;;;;5051497;28;20035;-72
2024/04/06 02:26:24;;;;;;;6.15;1.50;;;;;;;;;;5051167;28;20374;-73
2024/04/06 02:28:50;;;;;;;5.60;1.52;;;;;;;;;;5051915;28;20025;-73
2024/04/06 02:31:15;;;;;;;4.45;1.60;;;;;;;;;;5051916;28;20409;-73
2024/04/06 02:33:40;;;;;;;4.82;1.52;;;;;;;;;;5049040;28;20066;-72
2024/04/06 02:36:05;;;;;;;5.00;1.40;;;;;;;;;;5042660;28;20044;-73
2024/04/06 02:38:30;;;;;;;3.78;1.42;;;;;;;;;;5045322;28;20037;-73
2024/04/06 02:40:56;;;;;;;5.03;1.08;;;;;;;;;;5042161;28;20036;-73
2024/04/06 02:43:21;;;;;;;4.35;1.30;;;;;;;;;;5043663;28;20025;-73
2024/04/06 02:45:47;;;;;;;4.68;1.42;;;;;;;;;;5044922;28;20033;-73
2024/04/06 02:48:12;;;;;;;8.95;3.03;;;;;;;;;;5042352;28;20026;-73
2024/04/06 02:50:38;;;;;;;4.85;1.70;;;;;;;;;;5047655;28;20033;-73
2024/04/06 02:53:04;;;;;;;4.60;1.80;;;;;;;;;;5031875;28;20087;-73
2024/04/06 02:55:29;;;;;;;3.15;1.60;;;;;;;;;;5043413;28;20129;-74
2024/04/06 02:57:54;;;;;;;3.70;1.30;;;;;;;;;;5044080;28;20123;-74
2024/04/06 03:00:19;;;;;;;4.32;1.60;;;;;;;;;;5044460;28;20060;-73
2024/04/06 03:02:45;;;;;;;3.53;1.50;;;;;;;;;;5044100;28;20029;-73
2024/04/06 03:05:10;;;;;;;3.97;1.80;;;;;;;;;;5041269;28;20048;-74
2024/04/06 03:07:35;;;;;;;3.28;1.50;;;;;;;;;;5047907;28;20032;-74
2024/04/06 03:10:00;;;;;;;3.38;1.38;;;;;;;;;;5041155;28;20609;-74
2024/04/06 03:12:25;;;;;;;4.72;1.60;;;;;;;;;;5044009;28;20079;-73
2024/04/06 03:14:51;;;;;;;4.40;1.10;;;;;;;;;;5044398;28;20036;-73
2024/04/06 03:17:16;;;;;;;4.88;1.50;;;;;;;;;;5041015;28;20042;-74
2024/04/06 03:19:41;;;;;;;5.85;1.48;;;;;;;;;;5044179;28;20130;-74
2024/04/06 03:22:06;;;;;;;4.57;1.70;;;;;;;;;;5041971;28;20051;-73
2024/04/06 03:24:32;;;;;;;5.85;1.60;;;;;;;;;;5045511;28;20129;-74
2024/04/06 03:26:57;;;;;;;4.20;1.83;;;;;;;;;;5045236;28;20078;-74
2024/04/06 03:29:22;;;;;;;4.03;1.50;;;;;;;;;;5044052;28;20459;-74
2024/04/06 03:31:47;;;;;;;5.95;1.27;;;;;;;;;;5049925;28;20021;-74
2024/04/06 03:34:13;;;;;;;4.93;1.40;;;;;;;;;;5048594;28;20047;-73
2024/04/06 03:36:38;;;;;;;4.03;1.65;;;;;;;;;;5047241;28;20099;-74
2024/04/06 03:39:03;;;;;;;4.15;1.38;;;;;;;;;;5048708;28;20120;-73
2024/04/06 03:41:28;;;;;;;4.50;1.77;;;;;;;;;;5041074;28;20498;-73
2024/04/06 03:43:54;;;;;;;3.95;1.33;;;;;;;;;;5047081;28;20033;-73
2024/04/06 03:46:19;;;;;;;3.75;1.48;;;;;;;;;;5049672;28;20064;-74
2024/04/06 03:48:44;;;;;;;5.40;1.77;;;;;;;;;;5047193;28;20041;-74
2024/04/06 03:51:09;;;;;;;3.45;1.60;;;;;;;;;;5046344;28;20398;-74
2024/04/06 03:53:38;;;;;;;3.05;1.52;;;;;;;;;;5044340;28;20479;-73
2024/04/06 03:56:03;;;;;;;3.17;1.08;;;;;;;;;;5045709;28;20401;-73
2024/04/06 03:58:28;;;;;;;2.80;1.05;;;;;;;;;;5046123;28;20036;-73
2024/04/06 04:00:55;;;;;;;4.68;2.03;;;;;;;;;;5043273;28;20061;-73
2024/04/06 04:03:20;;;;;;;5.05;1.35;;;;;;;;;;5045303;28;20037;-73
2024/04/06 04:05:45;;;;;;;3.83;1.45;;;;;;;;;;5042367;28;20029;-73
2024/04/06 04:08:10;;;;;;;2.80;1.20;;;;;;;;;;5048087;28;20032;-73
2024/04/06 04:10:36;;;;;;;2.53;0.90;;;;;;;;;;5044971;28;20438;-73
2024/04/06 04:13:02;;;;;;;3.40;1.20;;;;;;;;;;5043565;28;20505;-73
2024/04/06 04:15:28;;;;;;;3.58;1.30;;;;;;;;;;5041698;28;20434;-73
2024/04/06 04:17:53;;;;;;;4.20;1.13;;;;;;;;;;5041044;28;20108;-74
2024/04/06 04:20:19;;;;;;;3.05;1.45;;;;;;;;;;5043836;28;20040;-74
2024/04/06 04:22:44;;;;;;;2.60;1.00;;;;;;;;;;5041066;28;20497;-74
2024/04/06 04:25:10;;;;;;;4.78;1.40;;;;;;;;;;5042315;28;20561;-74
2024/04/06 04:27:35;;;;;;;2.78;1.40;;;;;;;;;;5043307;28;20028;-74
2024/04/06 04:30:00;;;;;;;2.95;1.25;;;;;;;;;;5042755;28;20046;-74
2024/04/06 04:32:25;;;;;;;3.40;1.20;;;;;;;;;;5040609;28;20037;-73
2024/04/06 04:34:50;;;;;;;3.08;1.17;;;;;;;;;;5044686;28;20056;-73
2024/04/06 04:37:16;;;;;;;2.55;1.08;;;;;;;;;;5042802;28;20043;-73
2024/04/06 04:39:41;;;;;;;4.15;1.20;;;;;;;;;;5044388;28;20029;-73
2024/04/06 04:42:06;;;;;;;3.40;1.20;;;;;;;;;;5041201;28;20080;-73
2024/04/06 04:44:32;;;;;;;7.03;1.42;;;;;;;;;;5039921;28;20048;-73
2024/04/06 04:46:58;;;;;;;4.82;1.75;;;;;;;;;;5043878;28;20040;-74
2024/04/06 04:49:25;;;;;;;3.58;1.00;;;;;;;;;;5041476;28;20486;-74
2024/04/06 04:51:50;;;;;;;5.13;1.20;;;;;;;;;;5042453;28;20060;-74
2024/04/06 04:54:15;;;;;;;2.45;1.05;;;;;;;;;;5038789;28;20443;-73
2024/04/06 04:56:40;;;;;;;3.35;1.48;;;;;;;;;;5039502;28;20032;-73
2024/04/06 04:59:06;;;;;;;3.90;1.48;;;;;;;;;;5042098;28;20115;-73
2024/04/06 05:01:31;;;;;;;3.25;1.55;;;;;;;;;;5024209;28;20469;-73
2024/04/06 05:03:56;;;;;;;6.63;1.50;;;;;;;;;;5041707;28;20551;-73
2024/04/06 05:06:22;;;;;;;3.38;1.77;;;;;;;;;;5039002;28;20033;-73
2024/04/06 05:08:47;;;;;;;3.90;1.38;;;;;;;;;;5039258;28;20033;-73
2024/04/06 05:11:12;;;;;;;3.40;1.20;;;;;;;;;;5043362;28;20037;-73
2024/04/06 05:13:38;;;;;;;3.92;1.25;;;;;;;;;;5039294;28;20037;-73
2024/04/06 05:16:03;;;;;;;2.20;1.10;;;;;;;;;;5042029;28;20115;-73
2024/04/06 05:18:28;;;;;;;3.13;1.42;;;;;;;;;;5038403;28;20399;-73
2024/04/06 05:20:55;;;;;;;3.13;1.40;;;;;;;;;;5042178;28;20093;-73
2024/04/06 05:23:20;;;;;;;2.92;1.17;;;;;;;;;;5041508;28;20580;-73
2024/04/06 05:25:47;;;;;;;3.15;1.20;;;;;;;;;;5038220;28;20041;-73
2024/04/06 05:28:12;;;;;;;2.70;1.38;;;;;;;;;;5045052;28;20040;-73
2024/04/06 05:30:37;;;;;;;3.70;1.13;;;;;;;;;;5038587;28;20029;-73
2024/04/06 05:33:03;;;;;;;4.35;1.70;;;;;;;;;;5048688;28;20025;-74
2024/04/06 05:35:28;;;;;;;3.30;1.40;;;;;;;;;;5041446;28;20040;-73
2024/04/06 05:37:53;;;;;;;5.05;1.23;;;;;;;;;;5041095;28;20496;-74
2024/04/06 05:40:19;;;;;;;5.00;1.60;;;;;;;;;;5041351;28;20032;-73
2024/04/06 05:42:44;;;;;;;7.43;1.92;;;;;;;;;;5040320;28;20030;-73
2024/04/06 05:45:10;;;;;;;3.80;1.30;;;;;;;;;;5041033;28;20029;-73
2024/04/06 05:47:35;;;;;;;3.33;1.40;;;;;;;;;;5027714;28;20036;-73
2024/04/06 05:50:00;;;;;;;4.05;1.40;;;;;;;;;;5039004;28;20052;-73
2024/04/06 05:52:26;;;;;;;3.55;1.20;;;;;;;;;;5041887;28;20048;-73
2024/04/06 05:54:51;;;;;;;4.50;1.40;;;;;;;;;;5040907;28;20052;-73
2024/04/06 05:57:16;;;;;;;3.38;1.23;;;;;;;;;;5040729;28;20486;-73
2024/04/06 05:59:41;;;;;;;3.38;1.10;;;;;;;;;;5039119;28;20033;-73
2024/04/06 06:02:07;;;;;;;4.38;1.52;;;;;;;;;;5037812;28;20040;-73
2024/04/06 06:04:32;;;;;;;3.20;1.30;;;;;;;;;;5043116;28;20041;-72
2024/04/06 06:06:57;;;;;;;3.92;1.55;;;;;;;;;;5039250;28;20026;-72
2024/04/06 06:09:22;;;;;;;2.90;1.17;;;;;;;;;;5042140;28;20431;-72
2024/04/06 06:11:49;;;;;;;3.45;1.08;;;;;;;;;;5042756;28;20032;-72
2024/04/06 06:14:14;;;;;;;3.90;1.20;;;;;;;;;;5045685;28;20040;-72
2024/04/06 06:16:40;;;;;;;4.47;1.40;;;;;;;;;;5041448;28;20037;-72
2024/04/06 06:19:05;;;;;;;5.28;1.58;;;;;;;;;;5043347;28;20028;-73
2024/04/06 06:21:30;;;;;;;3.35;0.90;;;;;;;;;;5047815;28;20029;-72
2024/04/06 06:23:56;;;;;;;4.03;1.10;;;;;;;;;;5048628;28;20031;-73
2024/04/06 06:26:22;;;;;;;4.63;1.30;;;;;;;;;;5041228;28;20435;-73
2024/04/06 06:28:47;;;;;;;3.80;1.13;;;;;;;;;;5044373;28;20033;-73
2024/04/06 06:31:12;;;;;;;3.53;1.10;;;;;;;;;;5039612;28;20037;-72
2024/04/06 06:33:37;;;;;;;4.53;1.10;;;;;;;;;;5045949;28;20032;-72
2024/04/06 06:36:03;;;;;;;3.50;1.30;;;;;;;;;;5042162;28;20044;-73
2024/04/06 06:38:28;;;;;;;3.53;1.10;;;;;;;;;;5048958;28;20033;-73
2024/04/06 06:40:53;;;;;;;2.30;0.88;;;;;;;;;;5045847;28;20052;-73
2024/04/06 06:43:20;;;;;;;3.65;1.00;;;;;;;;;;5043463;28;20234;-74
2024/04/06 06:45:45;;;;;;;2.10;0.73;;;;;;;;;;5050932;28;20057;-73
2024/04/06 06:48:10;;;;;;;2.55;0.73;;;;;;;;;;5051488;28;20115;-74
2024/04/06 06:50:37;;;;;;;2.78;0.90;;;;;;;;;;5046899;28;20079;-74
2024/04/06 06:53:03;;;;;;;2.80;0.90;;;;;;;;;;5047284;28;20033;-73
2024/04/06 06:55:28;;;;;;;1.98;0.70;;;;;;;;;;5049315;28;20031;-73
2024/04/06 06:57:54;;;;;;;3.03;0.82;;;;;;;;;;5044279;28;20101;-73
2024/04/06 07:00:20;;;;;;;3.28;0.88;;;;;;;;;;5046525;28;20037;-74
2024/04/06 07:02:45;;;;;;;4.68;1.00;;;;;;;;;;5048664;28;20071;-73
2024/04/06 07:05:10;;;;;;;2.20;0.95;;;;;;;;;;5047018;28;20125;-73
2024/04/06 07:07:35;;;;;;;3.45;0.85;;;;;;;;;;5042813;28;20038;-73
2024/04/06 07:10:01;;;;;;;4.70;0.70;;;;;;;;;;5045402;28;20394;-73
2024/04/06 07:12:26;;;;;;;2.33;0.60;;;;;;;;;;5041979;28;20528;-73
2024/04/06 07:14:52;;;;;;;2.03;0.80;;;;;;;;;;5047439;28;20104;-73
2024/04/06 07:17:18;;;;;;;3.72;1.17;;;;;;;;;;5048903;28;20104;-73
2024/04/06 07:19:43;;;;;;;3.72;1.10;;;;;;;;;;5032669;28;20045;-73
2024/04/06 07:22:08;;;;;;;5.25;0.80;;;;;;;;;;5046032;28;20090;-73
2024/04/06 07:24:33;;;;;;;3.40;1.00;;;;;;;;;;5044076;28;20074;-73
2024/04/06 07:26:58;;;;;;;3.35;0.50;;;;;;;;;;5047153;28;20029;-73
2024/04/06 07:29:24;;;;;;;2.25;0.85;;;;;;;;;;5049590;28;20688;-73
2024/04/06 07:31:49;;;;;;;3.20;0.95;;;;;;;;;;5047066;28;20033;-74
2024/04/06 07:34:14;;;;;;;2.30;0.82;;;;;;;;;;5047586;28;20033;-73
2024/04/06 07:36:39;;;;;;;2.63;0.85;;;;;;;;;;5043106;28;20037;-73
2024/04/06 07:39:04;;;;;;;2.83;0.57;;;;;;;;;;5047534;28;20029;-73
2024/04/06 07:41:30;;;;;;;3.10;0.93;;;;;;;;;;5049492;28;20445;-73
2024/04/06 07:43:55;;;;;;;3.58;0.90;;;;;;;;;;5050160;28;20501;-73
2024/04/06 07:46:20;;;;;;;3.90;0.70;;;;;;;;;;5046986;28;20513;-74
2024/04/06 07:48:45;;;;;;;2.37;0.70;;;;;;;;;;5045561;28;20025;-74
2024/04/06 07:51:11;;;;;;;3.00;0.93;;;;;;;;;;5044333;28;20755;-75
2024/04/06 07:53:36;;;;;;;3.88;0.82;;;;;;;;;;5050657;28;20103;-74
2024/04/06 07:56:01;;;;;;;2.78;1.02;;;;;;;;;;5033657;28;20039;-74
2024/04/06 07:58:26;;;;;;;1.85;0.88;;;;;;;;;;5029887;28;20055;-75
2024/04/06 08:00:51;;;;;;;4.40;1.02;;;;;;;;;;5046125;28;20447;-74
2024/04/06 08:03:17;;;;;;;2.65;0.70;;;;;;;;;;5045730;28;20097;-75
2024/04/06 08:05:42;;;;;;;1.90;0.63;;;;;;;;;;5043869;28;20167;-76
2024/04/06 08:08:08;;;;;;;2.28;0.55;;;;;;;;;;5046996;28;20025;-75
2024/04/06 08:10:34;;;;;;;2.00;0.70;;;;;;;;;;5048339;28;20033;-74
2024/04/06 08:12:59;;;;;;;3.00;1.00;;;;;;;;;;5047945;28;20029;-75
2024/04/06 08:15:24;;;;;;;4.28;1.00;;;;;;;;;;5046603;28;20036;-74
2024/04/06 08:17:50;;;;;;;2.90;0.68;;;;;;;;;;5044031;28;20033;-74
2024/04/06 08:20:16;;;;;;;2.40;0.88;;;;;;;;;;5042983;28;20542;-75
2024/04/06 08:22:42;;;;;;;2.47;0.80;;;;;;;;;;5024563;28;20040;-74
2024/04/06 08:25:09;;;;;;;0.70;0.30;;;;;;;;;;5045664;28;20029;-74
2024/04/06 08:27:35;;;;;;;2.25;0.80;;;;;;;;;;5045367;28;20087;-74
2024/04/06 08:30:01;;;;;;;2.22;0.70;;;;;;;;;;5045591;28;20028;-74
2024/04/06 08:32:28;;;;;;;1.80;0.60;;;;;;;;;;5043715;28;20029;-75
2024/04/06 08:34:56;;;;;;;2.13;0.70;;;;;;;;;;5049878;28;20051;-74
2024/04/06 08:37:22;;;;;;;1.73;0.45;;;;;;;;;;5050029;28;20466;-75
2024/04/06 08:39:47;;;;;;;3.30;0.80;;;;;;;;;;5047726;28;20113;-74
2024/04/06 08:42:16;;;;;;;1.48;0.50;;;;;;;;;;5041596;28;20040;-73
2024/04/06 08:44:42;;;;;;;1.83;0.70;;;;;;;;;;5038803;28;20094;-73
2024/04/06 08:47:11;;;;;;;3.20;0.75;;;;;;;;;;5041317;28;20124;-74
2024/04/06 08:49:37;;;;;;;1.65;0.77;;;;;;;;;;5042528;28;20091;-73
2024/04/06 08:52:03;;;;;;;0.93;0.32;;;;;;;;;;5048294;28;20028;-73
2024/04/06 08:54:28;;;;;;;1.92;0.80;;;;;;;;;;5047392;28;20040;-73
2024/04/06 08:56:55;;;;;;;2.15;0.65;;;;;;;;;;5045245;28;20079;-73
2024/04/06 08:59:22;;;;;;;3.00;0.65;;;;;;;;;;5042863;28;20123;-73
2024/04/06 09:01:47;;;;;;;3.08;0.60;;;;;;;;;;5041463;28;20034;-73
2024/04/06 09:04:13;;;;;;;2.30;0.60;;;;;;;;;;5046240;28;20043;-73
2024/04/06 09:06:39;;;;;;;2.25;0.55;;;;;;;;;;5047166;28;20053;-73
2024/04/06 09:09:05;;;;;;;2.88;0.45;;;;;;;;;;5048352;28;20070;-73
2024/04/06 09:11:31;;;;;;;1.55;0.60;;;;;;;;;;5043047;28;20526;-73
2024/04/06 09:14:02;;;;;;;2.60;0.60;;;;;;;;;;5046578;28;20025;-73
2024/04/06 09:16:27;;;;;;;1.52;0.40;;;;;;;;;;5042896;28;20156;-73
2024/04/06 09:18:52;;;;;;;1.60;0.50;;;;;;;;;;5048387;28;20119;-73
2024/04/06 09:21:18;;;;;;;1.60;0.60;;;;;;;;;;5047665;28;20112;-73
2024/04/06 09:23:43;;;;;;;1.50;0.40;;;;;;;;;;5045098;28;20263;-73
2024/04/06 09:26:08;;;;;;;3.00;0.77;;;;;;;;;;5043586;28;20037;-73
2024/04/06 09:28:34;;;;;;;1.98;0.60;;;;;;;;;;5040031;28;20291;-73
2024/04/06 09:30:59;;;;;;;1.92;0.73;;;;;;;;;;5042342;28;20025;-73
2024/04/06 09:33:25;;;;;;;1.50;0.50;;;;;;;;;;5048914;28;20021;-73
2024/04/06 09:35:51;;;;;;;1.30;0.50;;;;;;;;;;5047882;28;20111;-72
2024/04/06 09:38:16;;;;;;;1.48;0.60;;;;;;;;;;5047811;28;20493;-73
2024/04/06 09:40:46;;;;;;;4.78;0.60;;;;;;;;;;5041747;28;20033;-73
2024/04/06 09:43:12;;;;;;;2.92;0.50;;;;;;;;;;5042148;28;20489;-73
2024/04/06 09:45:37;;;;;;;2.22;0.68;;;;;;;;;;5043475;28;20108;-73
2024/04/06 09:48:03;;;;;;;3.33;0.98;;;;;;;;;;5049810;28;20108;-73
2024/04/06 09:50:29;;;;;;;1.52;0.57;;;;;;;;;;5050514;28;20025;-73
2024/04/06 09:52:55;;;;;;;2.08;0.93;;;;;;;;;;5048497;28;20025;-73
2024/04/06 09:55:20;;;;;;;2.25;0.70;;;;;;;;;;5046643;28;20032;-73
2024/04/06 09:57:45;;;;;;;1.83;0.60;;;;;;;;;;5045734;28;20117;-73
2024/04/06 10:00:12;;;;;;;1.88;0.60;;;;;;;;;;5052902;28;20025;-73
2024/04/06 10:02:39;;;;;;;2.67;0.60;;;;;;;;;;5050196;28;20040;-73
2024/04/06 10:05:05;;;;;;;2.90;0.77;;;;;;;;;;5050118;28;20033;-73
2024/04/06 10:07:31;;;;;;;3.58;0.68;;;;;;;;;;5051120;28;20066;-73
2024/04/06 10:10:00;;;;;;;4.68;0.77;;;;;;;;;;5046742;28;20033;-73
2024/04/06 10:12:35;;;;;;;1.48;0.70;;;;;;;;;;5045734;28;20520;-73
2024/04/06 10:15:04;;;;;;;2.35;0.80;;;;;;;;;;5048697;28;20135;-73
2024/04/06 10:17:30;;;;;;;2.63;0.60;;;;;;;;;;5047715;28;20036;-73
2024/04/06 10:19:56;;;;;;;2.40;0.80;;;;;;;;;;5048469;28;20037;-73
2024/04/06 10:22:25;;;;;;;3.10;0.68;;;;;;;;;;5046302;28;20489;-74
2024/04/06 10:25:00;;;;;;;3.00;0.98;;;;;;;;;;5044812;28;20092;-73
2024/04/06 10:27:25;;;;;;;2.38;0.65;;;;;;;;;;5048814;28;20492;-73
2024/04/06 10:29:52;;;;;;;2.00;0.57;;;;;;;;;;5050375;28;20030;-73
2024/04/06 10:32:17;;;;;;;2.88;0.30;;;;;;;;;;5049867;28;20298;-73
2024/04/06 10:34:42;;;;;;;2.15;0.63;;;;;;;;;;5047454;28;20056;-73
2024/04/06 10:37:07;;;;;;;2.00;0.60;;;;;;;;;;5046791;28;20056;-73
2024/04/06 10:39:33;;;;;;;1.50;0.50;;;;;;;;;;5047455;28;20363;-73
2024/04/06 10:41:58;;;;;;;2.42;0.50;;;;;;;;;;5051684;28;20297;-73
2024/04/06 10:44:25;;;;;;;1.58;0.70;;;;;;;;;;5047416;28;20051;-73
2024/04/06 10:46:50;;;;;;;0.93;0.50;;;;;;;;;;5047645;28;20041;-73
2024/04/06 10:49:16;;;;;;;0.93;0.40;;;;;;;;;;5047437;28;20067;-73
2024/04/06 10:51:41;;;;;;;2.08;0.52;;;;;;;;;;5043278;28;20272;-73
2024/04/06 10:54:07;;;;;;;1.40;0.50;;;;;;;;;;5044770;28;20025;-73
2024/04/06 10:56:33;;;;;;;3.08;0.63;;;;;;;;;;5050867;28;20087;-73
2024/04/06 10:58:59;;;;;;;2.15;0.77;;;;;;;;;;5049466;28;20053;-73
2024/04/06 11:01:26;;;;;;;2.15;0.77;;;;;;;;;;5033518;28;20029;-73
2024/04/06 11:03:52;;;;;;;2.63;0.50;;;;;;;;;;5046597;28;20033;-74
2024/04/06 11:06:17;;;;;;;2.55;0.80;;;;;;;;;;5044060;28;20056;-74
2024/04/06 11:08:42;;;;;;;2.08;0.57;;;;;;;;;;5049328;28;20102;-73
2024/04/06 11:11:08;;;;;;;3.07;1.07;;;;;;;;;;5050694;28;20032;-74
2024/04/06 11:13:39;;;;;;;2.70;0.70;;;;;;;;;;5048882;28;20288;-74
2024/04/06 11:16:06;;;;;;;1.58;0.75;;;;;;;;;;5046310;28;20029;-73
2024/04/06 11:18:46;;;;;;;1.85;0.63;;;;;;;;;;5043833;28;20041;-73
2024/04/06 11:21:12;;;;;;;3.72;0.90;;;;;;;;;;5044427;28;20028;-74
2024/04/06 11:23:37;;;;;;;3.08;0.50;;;;;;;;;;5046744;28;20126;-73
2024/04/06 11:26:03;;;;;;;1.38;0.50;;;;;;;;;;5049573;28;20076;-73
2024/04/06 11:28:28;;;;;;;2.45;0.68;;;;;;;;;;5047401;28;20086;-73
2024/04/06 11:30:53;;;;;;;2.20;0.70;;;;;;;;;;5045894;28;20040;-73
2024/04/06 11:33:19;;;;;;;3.70;0.70;;;;;;;;;;5044824;28;20272;-73
2024/04/06 11:35:44;;;;;;;3.40;0.80;;;;;;;;;;5047346;28;20438;-73
2024/04/06 11:38:09;;;;;;;1.90;0.47;;;;;;;;;;5050697;28;20018;-74
2024/04/06 11:40:34;;;;;;;1.80;0.70;;;;;;;;;;5048126;28;20778;-73
2024/04/06 11:43:00;;;;;;;3.58;0.80;;;;;;;;;;5047527;28;20260;-73
2024/04/06 11:45:25;;;;;;;2.23;0.60;;;;;;;;;;5047394;28;20033;-74
2024/04/06 11:47:54;;;;;;;1.60;0.60;;;;;;;;;;5043160;28;20379;-73
2024/04/06 11:50:19;;;;;;;2.47;1.17;;;;;;;;;;5043398;28;20303;-73
2024/04/06 11:52:44;;;;;;;2.95;0.50;;;;;;;;;;5049387;28;20056;-73
2024/04/06 11:55:09;;;;;;;2.37;0.80;;;;;;;;;;5049905;28;20033;-73
2024/04/06 11:57:35;;;;;;;2.23;0.80;;;;;;;;;;5045036;28;20276;-74
2024/04/06 12:00:00;;;;;;;1.80;0.63;;;;;;;;;;5045327;28;20283;-74
2024/04/06 12:02:25;;;;;;;1.40;0.70;;;;;;;;;;5041813;28;20055;-73
2024/04/06 12:04:50;;;;;;;2.05;0.70;;;;;;;;;;5042450;28;20648;-73
2024/04/06 12:07:16;;;;;;;2.43;1.00;;;;;;;;;;5050381;28;20068;-74
2024/04/06 12:09:41;;;;;;;1.48;0.70;;;;;;;;;;5047208;28;20272;-73
2024/04/06 12:12:08;;;;;;;1.40;0.68;;;;;;;;;;5046192;28;20409;-74
2024/04/06 12:14:33;;;;;;;2.33;0.95;;;;;;;;;;5045074;28;20032;-74
2024/04/06 12:17:00;;;;;;;2.70;0.80;;;;;;;;;;5043523;28;20029;-73
2024/04/06 12:19:26;;;;;;;1.95;0.77;;;;;;;;;;5046450;28;20025;-73
2024/04/06 12:21:51;;;;;;;1.83;0.70;;;;;;;;;;5045441;28;20128;-74
2024/04/06 12:24:18;;;;;;;2.38;1.17;;;;;;;;;;5043245;28;20445;-74
2024/04/06 12:26:43;;;;;;;1.83;1.27;;;;;;;;;;5039183;28;20805;-74
2024/04/06 12:29:08;;;;;;;2.90;1.00;;;;;;;;;;5042936;28;20120;-74
2024/04/06 12:31:33;;;;;;;1.83;0.57;;;;;;;;;;5039738;28;20267;-74
2024/04/06 12:33:58;;;;;;;4.70;0.90;;;;;;;;;;5040316;28;20282;-74
2024/04/06 12:36:24;;;;;;;2.53;0.70;;;;;;;;;;5042611;28;20291;-73
2024/04/06 12:38:49;;;;;;;2.67;0.63;;;;;;;;;;5040828;28;20083;-74
2024/04/06 12:41:14;;;;;;;1.98;0.60;;;;;;;;;;5043989;28;20059;-74
2024/04/06 12:43:40;;;;;;;2.20;0.65;;;;;;;;;;5042170;28;20037;-74
2024/04/06 12:46:05;;;;;;;2.37;0.67;;;;;;;;;;5044234;28;20433;-74
2024/04/06 12:48:30;;;;;;;1.80;0.70;;;;;;;;;;5043094;28;20729;-73
2024/04/06 12:50:55;;;;;;;2.67;1.10;;;;;;;;;;5039124;28;20029;-73
2024/04/06 12:53:20;;;;;;;2.30;0.77;;;;;;;;;;5042025;28;20275;-74
2024/04/06 12:55:47;;;;;;;1.40;0.50;;;;;;;;;;5044378;28;20029;-73
2024/04/06 12:58:12;;;;;;;2.28;0.60;;;;;;;;;;5042003;28;20759;-74
2024/04/06 13:00:37;;;;;;;1.85;0.60;;;;;;;;;;5038494;28;20040;-74
2024/04/06 13:03:02;;;;;;;2.43;1.00;;;;;;;;;;5039069;28;20034;-74
2024/04/06 13:05:28;;;;;;;1.88;0.60;;;;;;;;;;5042169;28;20268;-73
2024/04/06 13:07:53;;;;;;;2.67;0.90;;;;;;;;;;5044049;28;20037;-73
2024/04/06 13:10:18;;;;;;;1.77;0.60;;;;;;;;;;5041514;28;20056;-73
2024/04/06 13:12:43;;;;;;;3.80;0.88;;;;;;;;;;5038472;28;20026;-73
2024/04/06 13:15:12;;;;;;;1.00;0.60;;;;;;;;;;5040872;28;20035;-73
2024/04/06 13:17:39;;;;;;;1.30;0.50;;;;;;;;;;5040697;28;20278;-73
2024/04/06 13:22:41;;;;;;;1.02;0.50;;;;;;;;;;5038153;28;20033;-73
2024/04/06 13:25:07;;;;;;;1.55;0.52;;;;;;;;;;5045155;28;20033;-73
2024/04/06 13:27:32;;;;;;;1.92;0.80;;;;;;;;;;5038389;28;20397;-74
2024/04/06 13:29:58;;;;;;;2.78;1.17;;;;;;;;;;5038333;28;20036;-74
2024/04/06 13:32:23;;;;;;;2.77;1.00;;;;;;;;;;5045630;28;20025;-73
2024/04/06 13:34:48;;;;;;;2.08;0.85;;;;;;;;;;5037926;28;20460;-73
2024/04/06 13:37:14;;;;;;;3.10;0.95;;;;;;;;;;5045703;28;20036;-73
2024/04/06 13:39:39;;;;;;;3.08;0.93;;;;;;;;;;5041380;28;20048;-74
2024/04/06 13:42:05;;;;;;;1.88;0.73;;;;;;;;;;5038354;28;20093;-74
2024/04/06 13:44:30;;;;;;;2.30;0.95;;;;;;;;;;5042758;28;20428;-74
2024/04/06 13:46:55;;;;;;;2.37;0.90;;;;;;;;;;5042515;28;20078;-74
2024/04/06 13:49:20;;;;;;;2.13;0.90;;;;;;;;;;5043755;28;20021;-74
2024/04/06 13:51:46;;;;;;;2.67;1.00;;;;;;;;;;5038326;28;20375;-74
2024/04/06 13:54:11;;;;;;;2.03;1.33;;;;;;;;;;5041499;28;20044;-74
2024/04/06 13:56:38;;;;;;;2.97;1.23;;;;;;;;;;5042042;28;20029;-74
2024/04/06 13:59:03;;;;;;;3.95;1.35;;;;;;;;;;5038882;28;20128;-74
2024/04/06 14:01:29;;;;;;;2.95;1.30;;;;;;;;;;5042503;28;20561;-74
2024/04/06 14:03:54;;;;;;;3.22;1.50;;;;;;;;;;5038745;28;20029;-73
2024/04/06 14:06:19;;;;;;;3.60;1.60;;;;;;;;;;5041805;28;20056;-74
2024/04/06 14:08:45;;;;;;;3.33;1.17;;;;;;;;;;5044419;28;20032;-74
2024/04/06 14:11:10;;;;;;;1.83;0.90;;;;;;;;;;5039030;28;20056;-74
2024/04/06 14:13:36;;;;;;;2.45;1.02;;;;;;;;;;5041192;28;20417;-74
2024/04/06 14:16:03;;;;;;;3.75;1.35;;;;;;;;;;5039187;28;20033;-74
2024/04/06 14:18:28;;;;;;;1.83;1.20;;;;;;;;;;5042970;28;20036;-74
2024/04/06 14:20:53;;;;;;;3.03;1.20;;;;;;;;;;5039472;28;20084;-74
2024/04/06 14:23:19;;;;;;;3.23;1.37;;;;;;;;;;5037868;28;20286;-74
2024/04/06 14:25:44;;;;;;;2.60;1.23;;;;;;;;;;5040464;28;20059;-74
2024/04/06 14:28:10;;;;;;;1.70;1.00;;;;;;;;;;5041871;28;20402;-74
2024/04/06 14:30:36;;;;;;;2.13;1.07;;;;;;;;;;5040653;28;20037;-74
2024/04/06 14:33:01;;;;;;;2.97;1.20;;;;;;;;;;5026765;28;20284;-74
2024/04/06 14:35:26;;;;;;;2.07;1.00;;;;;;;;;;5041659;28;20452;-74